Time;durP1;ratioP1;P1;durP2;ratioP2;P2;SDS_P1;SDS_P2;PMS_P1;PMS_P2;Temp;Humidity;BMP_temperature;BMP_pressure;BME280_temperature;BME280_humidity;BME280_pressure;Samples;Min_cycle;Max_cycle;Signal;HPM_P1;HPM_P2
2022/07/04 00:00:45;;;;;;;2.50;2.30;;;25.20;62.70;;;;;;5114291;28;20430;-69
2022/07/04 00:03:11;;;;;;;2.55;2.33;;;25.20;62.70;;;;;;5114203;28;20467;-69
2022/07/04 00:05:38;;;;;;;2.73;2.53;;;25.20;62.70;;;;;;5113894;28;20404;-70
2022/07/04 00:08:04;;;;;;;2.70;2.50;;;25.20;62.70;;;;;;5113651;28;20382;-68
2022/07/04 00:10:29;;;;;;;2.40;2.20;;;25.20;62.70;;;;;;5114193;28;20396;-67
2022/07/04 00:12:56;;;;;;;3.03;2.40;;;25.20;62.70;;;;;;5113875;28;20849;-70
2022/07/04 00:15:22;;;;;;;2.90;2.60;;;25.20;62.70;;;;;;5113924;27;20385;-69
2022/07/04 00:17:48;;;;;;;2.65;2.40;;;25.20;63.20;;;;;;5113933;28;20419;-66
2022/07/04 00:20:13;;;;;;;2.90;2.60;;;25.20;62.70;;;;;;5114686;28;20396;-69
2022/07/04 00:22:39;;;;;;;2.75;2.13;;;25.20;62.60;;;;;;5113789;28;20403;-69
2022/07/04 00:25:05;;;;;;;2.60;2.33;;;25.20;62.60;;;;;;5113508;28;20414;-69
2022/07/04 00:27:31;;;;;;;2.92;2.25;;;25.20;62.60;;;;;;5113817;28;20449;-66
2022/07/04 00:29:57;;;;;;;2.70;2.42;;;25.20;62.60;;;;;;5113658;28;20380;-68
2022/07/04 00:32:23;;;;;;;2.60;2.40;;;25.20;62.70;;;;;;5113752;28;20389;-69
2022/07/04 00:34:48;;;;;;;2.58;2.38;;;25.20;62.60;;;;;;5113343;28;20491;-65
2022/07/04 00:37:14;;;;;;;2.90;2.10;;;25.10;62.50;;;;;;5111551;28;20511;-69
2022/07/04 00:39:41;;;;;;;3.47;2.42;;;25.10;62.50;;;;;;5113163;28;20380;-65
2022/07/04 00:42:07;;;;;;;2.50;2.30;;;25.10;62.50;;;;;;5113502;28;20492;-67
2022/07/04 00:44:36;;;;;;;2.35;2.15;;;25.10;62.50;;;;;;5113305;28;20816;-68
2022/07/04 00:47:02;;;;;;;2.50;2.10;;;25.10;62.50;;;;;;5112830;28;20904;-66
2022/07/04 00:49:28;;;;;;;2.63;2.40;;;25.10;62.60;;;;;;5113077;28;20384;-65
2022/07/04 00:51:55;;;;;;;3.10;2.50;;;25.10;62.50;;;;;;5112930;28;20749;-69
2022/07/04 00:54:26;;;;;;;2.78;2.13;;;25.10;62.50;;;;;;5113299;28;20926;-66
2022/07/04 00:56:52;;;;;;;2.92;2.40;;;25.20;62.50;;;;;;5112621;28;20963;-69
2022/07/04 00:59:18;;;;;;;2.70;2.40;;;25.10;62.40;;;;;;5113265;28;20412;-64
2022/07/04 01:01:44;;;;;;;2.58;2.28;;;25.10;62.40;;;;;;5113056;27;20408;-68
2022/07/04 01:04:10;;;;;;;2.40;2.20;;;25.10;62.40;;;;;;5111779;28;20400;-65
2022/07/04 01:06:36;;;;;;;2.50;2.30;;;25.10;62.40;;;;;;5112899;28;20811;-69
2022/07/04 01:09:02;;;;;;;2.95;2.25;;;25.10;62.50;;;;;;5111927;28;20434;-65
2022/07/04 01:11:28;;;;;;;2.50;2.30;;;25.10;62.40;;;;;;5112727;28;20388;-65
2022/07/04 01:13:54;;;;;;;2.80;2.50;;;25.10;62.30;;;;;;5112821;28;20453;-69
2022/07/04 01:16:20;;;;;;;2.63;2.42;;;25.10;62.40;;;;;;5112823;28;20412;-69
2022/07/04 01:18:46;;;;;;;2.70;2.50;;;25.10;62.40;;;;;;5112711;28;20413;-66
2022/07/04 01:21:12;;;;;;;2.47;2.10;;;25.10;62.40;;;;;;5112228;28;20882;-68
2022/07/04 01:23:39;;;;;;;2.40;2.20;;;25.10;62.40;;;;;;5112628;28;20411;-69
2022/07/04 01:26:05;;;;;;;2.78;2.33;;;25.10;62.30;;;;;;5112716;28;20387;-65
2022/07/04 01:28:31;;;;;;;2.42;2.22;;;25.10;62.30;;;;;;5112690;28;20880;-65
2022/07/04 01:30:57;;;;;;;2.60;2.20;;;25.10;62.40;;;;;;5112168;28;20388;-65
2022/07/04 01:33:23;;;;;;;2.75;2.15;;;25.10;62.30;;;;;;5111559;28;20449;-69
2022/07/04 01:35:48;;;;;;;2.40;2.20;;;25.10;62.30;;;;;;5112452;28;20392;-65
2022/07/04 01:38:14;;;;;;;2.67;2.30;;;25.10;62.30;;;;;;5112061;28;20483;-65
2022/07/04 01:40:40;;;;;;;3.00;2.47;;;25.10;62.30;;;;;;5111971;28;20864;-66
2022/07/04 01:43:06;;;;;;;2.70;2.30;;;25.10;62.30;;;;;;5111884;28;20392;-69
2022/07/04 01:45:34;;;;;;;2.50;2.20;;;25.00;62.20;;;;;;5112346;28;20400;-65
2022/07/04 01:48:06;;;;;;;2.60;2.40;;;25.00;62.20;;;;;;5112214;28;20383;-65
2022/07/04 01:50:32;;;;;;;2.33;2.10;;;25.00;62.20;;;;;;5112055;28;20393;-65
2022/07/04 01:52:58;;;;;;;2.47;2.28;;;25.00;62.20;;;;;;5111446;28;20464;-65
2022/07/04 01:55:24;;;;;;;2.65;2.30;;;25.00;62.10;;;;;;5112253;28;20493;-65
2022/07/04 01:57:49;;;;;;;2.60;2.20;;;25.00;62.20;;;;;;5110820;28;20420;-65
2022/07/04 02:02:59;;;;;;;2.65;2.30;;;25.00;62.10;;;;;;5111670;28;20422;-64
2022/07/04 02:05:25;;;;;;;2.40;2.20;;;25.00;62.10;;;;;;5110658;28;20408;-64
2022/07/04 02:07:51;;;;;;;3.45;2.22;;;25.00;62.10;;;;;;5110563;28;20869;-68
2022/07/04 02:10:17;;;;;;;2.60;2.40;;;25.00;62.10;;;;;;5111439;28;20468;-67
2022/07/04 02:13:01;;;;;;;2.40;2.20;;;25.00;62.10;;;;;;5111720;28;20928;-67
2022/07/04 02:15:39;;;;;;;2.40;2.20;;;25.00;62.10;;;;;;5111802;28;20904;-69
2022/07/04 02:18:07;;;;;;;2.70;2.17;;;25.00;62.10;;;;;;5110681;28;20403;-65
2022/07/04 02:20:34;;;;;;;2.33;2.13;;;25.00;62.10;;;;;;5111718;28;20903;-66
2022/07/04 02:23:00;;;;;;;2.65;2.03;;;25.00;62.10;;;;;;5111080;28;20396;-67
2022/07/04 02:25:25;;;;;;;2.78;2.20;;;25.00;62.10;;;;;;5110507;28;20396;-65
2022/07/04 02:27:51;;;;;;;3.00;2.50;;;25.00;62.10;;;;;;5111866;28;20471;-69
2022/07/04 02:30:17;;;;;;;2.63;2.22;;;25.00;62.10;;;;;;5111826;28;20757;-69
2022/07/04 02:32:43;;;;;;;2.53;2.30;;;25.00;62.10;;;;;;5111719;28;20389;-65
2022/07/04 02:35:09;;;;;;;2.45;2.25;;;25.00;62.10;;;;;;5111292;28;20791;-65
2022/07/04 02:37:35;;;;;;;2.50;2.30;;;25.00;62.10;;;;;;5111605;28;20474;-68
2022/07/04 02:40:02;;;;;;;2.60;2.20;;;25.00;62.00;;;;;;5111755;28;20780;-65
2022/07/04 02:42:33;;;;;;;2.28;2.08;;;25.00;62.00;;;;;;5110348;28;20766;-66
2022/07/04 02:44:59;;;;;;;2.58;2.15;;;25.00;62.00;;;;;;5112692;28;20894;-65
2022/07/04 02:47:24;;;;;;;2.60;2.40;;;25.00;61.90;;;;;;5115790;27;20471;-66
2022/07/04 02:49:50;;;;;;;2.38;2.17;;;25.00;61.90;;;;;;5115599;28;20467;-69
2022/07/04 02:52:16;;;;;;;3.13;2.20;;;25.00;62.00;;;;;;5115745;28;20395;-65
2022/07/04 02:54:42;;;;;;;2.33;2.13;;;25.00;62.00;;;;;;5114975;28;20467;-67
2022/07/04 02:57:07;;;;;;;2.30;2.10;;;25.00;61.90;;;;;;5114772;28;20880;-65
2022/07/04 02:59:33;;;;;;;2.40;2.20;;;25.00;62.00;;;;;;5115338;28;20392;-65
2022/07/04 03:01:59;;;;;;;2.67;2.10;;;25.00;62.00;;;;;;5115474;28;20392;-64
2022/07/04 03:04:24;;;;;;;2.50;2.20;;;24.90;62.00;;;;;;5115320;28;20920;-68
2022/07/04 03:06:50;;;;;;;3.33;2.50;;;24.90;62.10;;;;;;5115163;28;20392;-69
2022/07/04 03:09:16;;;;;;;5.20;2.70;;;24.90;62.10;;;;;;5114866;28;20760;-68
2022/07/04 03:11:42;;;;;;;4.68;2.60;;;24.90;62.10;;;;;;5115114;28;20381;-69
2022/07/04 03:14:08;;;;;;;6.70;4.97;;;24.90;62.10;;;;;;5115155;28;20396;-65
2022/07/04 03:16:33;;;;;;;5.37;3.60;;;25.00;63.00;;;;;;5114995;28;20404;-69
2022/07/04 03:18:59;;;;;;;5.70;3.57;;;25.00;63.10;;;;;;5113280;28;20423;-65
2022/07/04 03:21:25;;;;;;;8.23;3.40;;;25.00;64.50;;;;;;5115361;28;20384;-64
2022/07/04 03:24:00;;;;;;;6.93;3.57;;;25.00;64.70;;;;;;5114562;28;20477;-68
2022/07/04 03:26:29;;;;;;;5.50;3.30;;;25.00;65.70;;;;;;5114856;28;20364;-70
2022/07/04 03:28:56;;;;;;;6.07;3.20;;;25.10;66.10;;;;;;5114603;28;20418;-65
2022/07/04 03:31:23;;;;;;;6.55;3.20;;;25.10;66.00;;;;;;5113571;28;20373;-66
2022/07/04 03:33:49;;;;;;;6.40;3.40;;;25.10;66.20;;;;;;5113215;28;20403;-70
2022/07/04 03:36:15;;;;;;;5.35;3.22;;;25.10;66.00;;;;;;5114198;28;20483;-68
2022/07/04 03:38:41;;;;;;;5.13;3.00;;;25.10;66.10;;;;;;5114389;28;20500;-70
2022/07/04 03:41:06;;;;;;;5.70;2.97;;;25.10;66.30;;;;;;5114148;28;20380;-68
2022/07/04 03:43:32;;;;;;;5.40;3.10;;;25.10;65.40;;;;;;5114377;28;20388;-65
2022/07/04 03:45:58;;;;;;;5.20;2.90;;;25.10;66.00;;;;;;5114463;28;20395;-65
2022/07/04 03:48:23;;;;;;;4.80;3.00;;;25.10;65.50;;;;;;5114602;28;20467;-71
2022/07/04 03:50:49;;;;;;;4.85;3.13;;;25.10;66.00;;;;;;5147454;27;20393;-69
2022/07/04 03:53:15;;;;;;;4.57;2.60;;;25.10;65.70;;;;;;5114094;28;20822;-69
2022/07/04 03:55:41;;;;;;;6.03;3.25;;;25.10;65.30;;;;;;5112705;28;20932;-67
2022/07/04 03:58:07;;;;;;;6.88;2.92;;;25.10;64.90;;;;;;5113745;28;20446;-69
2022/07/04 04:00:33;;;;;;;4.67;3.30;;;25.10;63.50;;;;;;5114264;28;20431;-65
2022/07/04 04:02:59;;;;;;;7.28;3.33;;;25.00;63.40;;;;;;5114724;28;20381;-70
2022/07/04 04:05:27;;;;;;;7.77;3.10;;;25.00;63.80;;;;;;5114150;28;20783;-65
2022/07/04 04:07:57;;;;;;;8.15;2.90;;;25.00;64.40;;;;;;5114180;28;20388;-66
2022/07/04 04:10:24;;;;;;;8.52;3.15;;;25.00;64.10;;;;;;5114394;28;20376;-68
2022/07/04 04:12:50;;;;;;;6.75;3.30;;;25.00;64.20;;;;;;5114091;28;20919;-69
2022/07/04 04:15:16;;;;;;;8.32;3.28;;;25.00;64.00;;;;;;5113648;28;20381;-69
2022/07/04 04:17:42;;;;;;;7.47;3.30;;;25.00;64.00;;;;;;5113828;28;20543;-65
2022/07/04 04:20:10;;;;;;;6.63;3.35;;;25.00;64.10;;;;;;5113969;28;20389;-65
2022/07/04 04:22:36;;;;;;;5.68;3.35;;;25.00;64.00;;;;;;5113933;28;20473;-65
2022/07/04 04:25:02;;;;;;;6.28;3.20;;;25.00;64.00;;;;;;5113400;28;20430;-65
2022/07/04 04:27:28;;;;;;;6.73;3.40;;;25.00;64.00;;;;;;5113719;28;20402;-65
2022/07/04 04:29:53;;;;;;;5.50;3.00;;;24.90;63.90;;;;;;5113625;28;20926;-68
2022/07/04 04:32:19;;;;;;;5.17;2.87;;;25.00;63.90;;;;;;5114747;27;20482;-66
2022/07/04 04:34:44;;;;;;;5.60;3.10;;;25.00;63.80;;;;;;5122286;27;20865;-66
2022/07/04 04:37:10;;;;;;;5.72;3.03;;;24.90;63.70;;;;;;5120676;27;20412;-69
2022/07/04 04:39:36;;;;;;;3.90;2.90;;;24.90;63.60;;;;;;5121478;27;20388;-69
2022/07/04 04:42:01;;;;;;;5.00;2.83;;;24.90;63.60;;;;;;5130486;27;20439;-65
2022/07/04 04:44:27;;;;;;;4.78;3.00;;;24.90;63.50;;;;;;5132612;27;20387;-65
2022/07/04 04:46:53;;;;;;;6.37;3.10;;;24.90;63.50;;;;;;5112296;28;20475;-64
2022/07/04 04:49:18;;;;;;;6.60;3.10;;;24.90;63.80;;;;;;5112235;28;20378;-68
2022/07/04 04:51:44;;;;;;;5.57;3.10;;;24.90;63.70;;;;;;5103064;28;20748;-68
2022/07/04 04:54:11;;;;;;;7.60;4.47;;;24.90;64.00;;;;;;5107155;28;20878;-69
2022/07/04 04:56:36;;;;;;;11.50;3.97;;;24.90;65.00;;;;;;5112284;27;20396;-66
2022/07/04 04:59:02;;;;;;;5.77;3.10;;;25.00;64.80;;;;;;5105338;28;20419;-69
2022/07/04 05:01:28;;;;;;;15.48;3.90;;;25.00;63.50;;;;;;5091010;28;20466;-65
2022/07/04 05:03:55;;;;;;;12.85;3.70;;;24.90;63.40;;;;;;5091917;28;20447;-65
2022/07/04 05:06:21;;;;;;;12.88;3.63;;;24.90;63.20;;;;;;5107328;27;20406;-65
2022/07/04 05:08:48;;;;;;;8.05;3.38;;;24.90;63.00;;;;;;5112489;28;21204;-65
2022/07/04 05:11:13;;;;;;;6.10;3.05;;;24.90;63.10;;;;;;5111853;28;20384;-64
2022/07/04 05:13:39;;;;;;;6.90;2.80;;;24.90;63.30;;;;;;5112489;28;20754;-65
2022/07/04 05:16:05;;;;;;;4.63;2.70;;;24.90;63.30;;;;;;5112502;28;20878;-66
2022/07/04 05:18:31;;;;;;;6.28;2.95;;;24.90;63.40;;;;;;5112692;27;20404;-65
2022/07/04 05:20:58;;;;;;;6.65;3.03;;;24.90;63.40;;;;;;5111316;28;20531;-68
2022/07/04 05:23:24;;;;;;;6.70;2.85;;;24.90;63.40;;;;;;5110785;28;20471;-69
2022/07/04 05:25:50;;;;;;;4.35;2.90;;;24.90;63.40;;;;;;5112316;28;20471;-65
2022/07/04 05:28:16;;;;;;;5.45;2.70;;;24.90;63.70;;;;;;5112419;28;20392;-66
2022/07/04 05:30:42;;;;;;;5.70;2.70;;;24.90;63.50;;;;;;5112435;28;20377;-68
2022/07/04 05:33:08;;;;;;;5.93;2.80;;;24.90;63.60;;;;;;5111792;28;20501;-69
2022/07/04 05:35:34;;;;;;;6.40;2.92;;;24.90;63.60;;;;;;5112236;28;20373;-65
2022/07/04 05:37:59;;;;;;;5.55;3.17;;;24.90;63.50;;;;;;5110896;28;20488;-65
2022/07/04 05:40:25;;;;;;;5.47;2.83;;;24.90;63.50;;;;;;5112232;28;20975;-65
2022/07/04 05:42:51;;;;;;;5.15;2.85;;;24.90;63.50;;;;;;5112045;28;20388;-67
2022/07/04 05:45:16;;;;;;;4.13;2.75;;;24.90;63.40;;;;;;5110366;28;20772;-69
2022/07/04 05:47:44;;;;;;;4.28;2.60;;;24.90;63.40;;;;;;5111908;28;20403;-69
2022/07/04 05:50:10;;;;;;;6.13;2.70;;;24.90;63.40;;;;;;5110833;28;20396;-64
2022/07/04 05:52:36;;;;;;;4.13;2.65;;;24.90;63.40;;;;;;5111913;28;20390;-70
2022/07/04 05:55:01;;;;;;;4.32;2.50;;;24.90;63.40;;;;;;5111667;28;20415;-65
2022/07/04 05:57:27;;;;;;;4.50;2.67;;;24.80;63.40;;;;;;5111698;28;20440;-65
2022/07/04 05:59:53;;;;;;;4.30;2.80;;;24.90;63.30;;;;;;5111689;28;20388;-65
2022/07/04 06:02:18;;;;;;;4.43;2.60;;;24.90;63.40;;;;;;5112773;28;20388;-65
2022/07/04 06:04:44;;;;;;;3.72;2.72;;;24.90;63.50;;;;;;5111727;28;20396;-66
2022/07/04 06:07:10;;;;;;;3.83;2.53;;;24.90;63.40;;;;;;5111265;28;20427;-65
2022/07/04 06:09:36;;;;;;;4.37;2.60;;;24.90;63.40;;;;;;5111515;28;20377;-65
2022/07/04 06:12:03;;;;;;;4.15;2.72;;;24.90;63.40;;;;;;5111675;28;20415;-65
2022/07/04 06:14:29;;;;;;;4.18;2.47;;;24.90;63.40;;;;;;5111735;28;20376;-69
2022/07/04 06:16:54;;;;;;;5.57;2.67;;;24.90;63.40;;;;;;5111493;28;20424;-65
2022/07/04 06:19:20;;;;;;;4.75;2.60;;;24.90;63.30;;;;;;5110701;28;20389;-65
2022/07/04 06:21:46;;;;;;;3.67;2.30;;;24.90;63.30;;;;;;5111570;28;20377;-65
2022/07/04 06:24:12;;;;;;;3.03;2.40;;;24.90;63.30;;;;;;5111738;28;20875;-69
2022/07/04 06:26:37;;;;;;;3.00;2.33;;;24.90;63.20;;;;;;5111731;28;20503;-65
2022/07/04 06:29:03;;;;;;;3.83;2.40;;;24.90;63.30;;;;;;5111242;28;20398;-65
2022/07/04 06:31:29;;;;;;;2.70;2.20;;;25.00;63.20;;;;;;5111360;28;20477;-68
2022/07/04 06:36:39;;;;;;;4.10;2.60;;;24.90;63.10;;;;;;5111423;28;20461;-65
2022/07/04 06:39:04;;;;;;;4.22;2.65;;;24.90;63.10;;;;;;5111182;28;20377;-65
2022/07/04 06:41:30;;;;;;;3.30;2.70;;;24.90;63.10;;;;;;5109979;28;20881;-64
2022/07/04 06:43:56;;;;;;;3.65;2.80;;;24.90;63.00;;;;;;5111391;28;20408;-64
2022/07/04 06:46:21;;;;;;;3.08;2.47;;;24.90;63.20;;;;;;5111424;28;20950;-65
2022/07/04 06:48:47;;;;;;;3.37;2.47;;;24.90;63.20;;;;;;5111510;28;20877;-65
2022/07/04 06:51:13;;;;;;;3.38;2.30;;;24.90;63.10;;;;;;5110754;28;20388;-64
2022/07/04 06:53:41;;;;;;;3.17;2.73;;;24.90;63.10;;;;;;5111938;28;20421;-64
2022/07/04 06:56:06;;;;;;;2.70;2.50;;;24.80;63.20;;;;;;5111335;28;20407;-69
2022/07/04 06:58:32;;;;;;;2.80;2.50;;;24.80;63.00;;;;;;5111383;28;20392;-64
2022/07/04 07:00:58;;;;;;;3.13;2.50;;;24.80;63.00;;;;;;5110924;28;20428;-66
2022/07/04 07:03:23;;;;;;;3.20;2.38;;;24.90;63.20;;;;;;5112933;28;20396;-65
2022/07/04 07:05:49;;;;;;;3.03;2.50;;;24.80;63.00;;;;;;5111310;28;20485;-65
2022/07/04 07:08:15;;;;;;;3.40;2.60;;;24.80;63.10;;;;;;5111468;28;20777;-69
2022/07/04 07:10:40;;;;;;;3.33;2.30;;;24.80;63.10;;;;;;5111323;28;20887;-69
2022/07/04 07:13:06;;;;;;;3.03;2.33;;;24.80;63.10;;;;;;5110965;28;20405;-65
2022/07/04 07:15:35;;;;;;;3.33;2.40;;;24.90;63.10;;;;;;5111190;28;20392;-65
2022/07/04 07:18:01;;;;;;;3.00;2.67;;;24.80;63.00;;;;;;5112754;28;20416;-69
2022/07/04 07:20:27;;;;;;;3.03;2.33;;;24.80;63.20;;;;;;5112051;28;20421;-68
2022/07/04 07:22:52;;;;;;;2.83;2.40;;;24.80;63.10;;;;;;5111684;28;20458;-65
2022/07/04 07:25:18;;;;;;;3.27;2.40;;;24.80;63.10;;;;;;5110814;28;20430;-65
2022/07/04 07:27:44;;;;;;;3.60;2.60;;;24.80;63.10;;;;;;5111143;28;20419;-65
2022/07/04 07:30:10;;;;;;;3.33;2.35;;;24.80;63.10;;;;;;5111040;28;20412;-65
2022/07/04 07:32:36;;;;;;;2.97;2.30;;;24.80;63.10;;;;;;5113233;28;20393;-65
2022/07/04 07:35:02;;;;;;;2.80;2.13;;;24.80;63.10;;;;;;5114473;28;20388;-65
2022/07/04 07:37:27;;;;;;;3.17;2.35;;;24.80;63.10;;;;;;5111510;27;20440;-68
2022/07/04 07:39:53;;;;;;;2.93;2.30;;;24.80;63.10;;;;;;5115065;28;20416;-65
2022/07/04 07:42:19;;;;;;;2.50;2.25;;;24.80;63.10;;;;;;5114590;28;20396;-65
2022/07/04 07:44:47;;;;;;;3.08;2.20;;;24.80;63.10;;;;;;5114265;28;20457;-64
2022/07/04 07:47:13;;;;;;;2.75;2.42;;;24.80;63.10;;;;;;5113455;28;20475;-64
2022/07/04 07:49:40;;;;;;;3.65;2.20;;;24.90;63.00;;;;;;5114041;28;20376;-64
2022/07/04 07:52:06;;;;;;;3.78;2.63;;;24.80;62.90;;;;;;5114302;28;20396;-64
2022/07/04 07:54:31;;;;;;;4.70;2.40;;;24.80;63.70;;;;;;5115211;28;20742;-64
2022/07/04 07:56:57;;;;;;;3.63;2.30;;;24.90;64.00;;;;;;5147240;27;20770;-70
2022/07/04 07:59:23;;;;;;;2.93;2.30;;;24.90;64.20;;;;;;5113982;28;20396;-65
2022/07/04 08:01:48;;;;;;;3.40;2.20;;;24.90;64.00;;;;;;5114132;28;20486;-66
2022/07/04 08:06:58;;;;;;;3.25;2.30;;;25.00;64.00;;;;;;5113851;28;20444;-66
2022/07/04 08:09:24;;;;;;;3.17;2.20;;;25.00;63.90;;;;;;5113559;28;20886;-70
2022/07/04 08:11:49;;;;;;;4.20;2.30;;;25.00;64.00;;;;;;5113866;28;20430;-69
2022/07/04 08:14:15;;;;;;;3.37;2.00;;;25.00;64.00;;;;;;5113985;28;20746;-70
2022/07/04 08:16:40;;;;;;;2.73;2.00;;;25.00;63.80;;;;;;5113673;28;20405;-64
2022/07/04 08:19:06;;;;;;;2.60;1.90;;;25.00;63.70;;;;;;5113765;28;20388;-64
2022/07/04 08:21:32;;;;;;;2.57;2.20;;;25.00;63.30;;;;;;5113579;28;20526;-64
2022/07/04 08:23:58;;;;;;;2.45;2.03;;;25.00;63.50;;;;;;5113695;28;20388;-65
2022/07/04 08:26:24;;;;;;;2.20;2.00;;;25.00;63.40;;;;;;5113787;28;20392;-65
2022/07/04 08:28:51;;;;;;;2.28;1.90;;;25.00;63.40;;;;;;5113522;28;20377;-65
2022/07/04 08:31:18;;;;;;;2.28;2.00;;;25.00;63.20;;;;;;5113117;28;20795;-65
2022/07/04 08:33:43;;;;;;;2.42;2.00;;;25.00;63.30;;;;;;5112229;28;20792;-64
2022/07/04 08:36:09;;;;;;;2.25;2.03;;;25.00;63.10;;;;;;5113401;28;20392;-65
2022/07/04 08:38:34;;;;;;;2.50;2.00;;;25.00;63.00;;;;;;5113423;28;20396;-66
2022/07/04 08:41:03;;;;;;;2.50;2.30;;;25.00;63.10;;;;;;5113381;28;20377;-65
2022/07/04 08:43:33;;;;;;;2.28;2.08;;;25.00;63.00;;;;;;5111308;28;20408;-65
2022/07/04 08:45:59;;;;;;;2.65;2.30;;;25.00;63.00;;;;;;5113376;28;20417;-65
2022/07/04 08:48:26;;;;;;;2.40;2.20;;;25.00;63.00;;;;;;5113659;28;20485;-64
2022/07/04 08:50:57;;;;;;;2.83;2.37;;;25.00;62.90;;;;;;5113270;28;20454;-65
2022/07/04 08:53:27;;;;;;;2.53;2.33;;;25.00;63.00;;;;;;5112776;28;20784;-65
2022/07/04 08:58:39;;;;;;;2.38;2.17;;;25.00;63.00;;;;;;5113348;28;20384;-65
2022/07/04 09:01:07;;;;;;;2.45;2.03;;;25.00;62.90;;;;;;5112760;28;20377;-66
2022/07/04 09:03:34;;;;;;;2.40;2.03;;;25.00;62.90;;;;;;5112294;28;20876;-67
2022/07/04 09:06:04;;;;;;;2.17;2.00;;;25.00;62.80;;;;;;5112739;28;20404;-65
2022/07/04 09:08:30;;;;;;;2.40;2.20;;;25.00;62.80;;;;;;5112701;28;20396;-69
2022/07/04 09:10:55;;;;;;;2.30;2.10;;;25.00;62.80;;;;;;5112574;28;20480;-65
2022/07/04 09:13:21;;;;;;;2.35;2.13;;;25.00;62.80;;;;;;5112421;28;20510;-64
2022/07/04 09:15:49;;;;;;;3.07;2.30;;;25.00;62.80;;;;;;5112799;28;20380;-64
2022/07/04 09:18:25;;;;;;;2.40;2.20;;;25.00;62.80;;;;;;5112748;28;20404;-65
2022/07/04 09:20:52;;;;;;;2.33;2.00;;;25.00;62.70;;;;;;5111207;28;20377;-65
2022/07/04 09:23:25;;;;;;;2.50;2.30;;;25.00;62.80;;;;;;5110655;28;20908;-64
2022/07/04 09:26:09;;;;;;;2.50;2.30;;;25.00;62.80;;;;;;5112553;28;20373;-65
2022/07/04 09:28:35;;;;;;;2.30;2.10;;;25.00;62.60;;;;;;5111206;28;20767;-69
2022/07/04 09:31:01;;;;;;;2.53;2.28;;;25.00;62.70;;;;;;5111011;28;20949;-65
2022/07/04 09:33:46;;;;;;;2.00;1.90;;;25.00;62.60;;;;;;5111829;28;20471;-65
2022/07/04 09:36:16;;;;;;;2.50;2.28;;;25.00;62.70;;;;;;5110603;28;20450;-66
2022/07/04 09:38:42;;;;;;;2.30;2.05;;;25.00;62.80;;;;;;5112174;28;20384;-65
2022/07/04 09:41:29;;;;;;;2.53;1.88;;;25.00;62.70;;;;;;5111848;28;20388;-65
2022/07/04 09:44:02;;;;;;;2.00;1.80;;;25.00;62.50;;;;;;5112342;27;20483;-64
2022/07/04 09:46:28;;;;;;;2.40;2.20;;;25.00;62.70;;;;;;5111659;28;20435;-65
2022/07/04 09:48:54;;;;;;;2.20;2.00;;;25.00;62.70;;;;;;5112180;28;20380;-66
2022/07/04 09:52:03;;;;;;;2.47;2.00;;;25.00;62.70;;;;;;5110358;28;20400;-64
2022/07/04 09:54:31;;;;;;;2.20;1.95;;;25.00;62.60;;;;;;5141381;27;20449;-64
2022/07/04 09:56:59;;;;;;;2.33;2.13;;;25.00;62.60;;;;;;5111774;28;20411;-64
2022/07/04 09:59:29;;;;;;;2.10;1.90;;;25.00;62.60;;;;;;5111403;28;20467;-65
2022/07/04 10:02:13;;;;;;;2.10;1.77;;;25.00;62.70;;;;;;5110599;28;20400;-70
2022/07/04 10:04:47;;;;;;;2.00;1.80;;;25.00;62.60;;;;;;5110713;28;20404;-65
2022/07/04 10:07:31;;;;;;;2.00;1.80;;;25.00;62.60;;;;;;5104664;28;20404;-64
2022/07/04 10:09:57;;;;;;;2.22;1.92;;;25.00;62.60;;;;;;5110493;28;20423;-69
2022/07/04 10:12:27;;;;;;;2.70;1.90;;;25.00;62.70;;;;;;5111624;28;20420;-64
2022/07/04 10:14:56;;;;;;;3.22;2.10;;;25.00;62.60;;;;;;5111367;28;20961;-65
2022/07/04 10:17:22;;;;;;;2.17;1.98;;;25.00;62.70;;;;;;5109978;28;20448;-65
2022/07/04 10:19:51;;;;;;;1.90;1.80;;;25.00;62.60;;;;;;5111018;28;20431;-67
2022/07/04 10:22:18;;;;;;;2.45;1.75;;;25.00;62.70;;;;;;5111447;28;20388;-64
2022/07/04 10:24:44;;;;;;;2.80;2.10;;;25.00;62.70;;;;;;5109974;28;20396;-69
2022/07/04 10:27:11;;;;;;;2.20;2.00;;;25.00;62.70;;;;;;5111347;28;20571;-64
2022/07/04 10:29:38;;;;;;;2.20;2.00;;;25.00;62.60;;;;;;5109537;28;20404;-67
2022/07/04 10:32:06;;;;;;;2.00;1.80;;;25.00;62.70;;;;;;5111063;28;20398;-64
2022/07/04 10:34:39;;;;;;;2.40;1.92;;;25.00;62.70;;;;;;5110964;28;20380;-65
2022/07/04 10:37:05;;;;;;;2.15;1.95;;;25.00;62.70;;;;;;5111267;28;20403;-67
2022/07/04 10:39:30;;;;;;;2.23;2.00;;;25.00;63.20;;;;;;5111022;28;20388;-69
2022/07/04 10:42:01;;;;;;;2.33;1.85;;;25.00;63.20;;;;;;5111302;28;20372;-69
2022/07/04 10:44:34;;;;;;;2.10;1.90;;;25.00;62.70;;;;;;5110226;28;20483;-68
2022/07/04 10:47:00;;;;;;;2.88;1.98;;;25.00;62.60;;;;;;5110211;28;20407;-64
2022/07/04 10:49:27;;;;;;;2.05;1.70;;;25.00;62.90;;;;;;5111008;28;20877;-64
2022/07/04 10:52:10;;;;;;;1.77;1.60;;;25.00;63.20;;;;;;5111439;28;20440;-65
2022/07/04 10:54:38;;;;;;;6.22;1.90;;;25.00;63.00;;;;;;5110511;28;20381;-68
2022/07/04 10:57:10;;;;;;;5.50;2.08;;;25.00;62.80;;;;;;5110028;28;20422;-68
2022/07/04 10:59:36;;;;;;;3.13;1.90;;;25.10;62.80;;;;;;5109671;28;20430;-69
2022/07/04 11:02:08;;;;;;;2.85;1.80;;;25.10;63.20;;;;;;5109880;28;20376;-70
2022/07/04 11:04:56;;;;;;;2.35;1.90;;;25.10;63.20;;;;;;5108039;28;20404;-70
2022/07/04 11:07:23;;;;;;;2.53;1.70;;;25.10;63.00;;;;;;5114444;28;20437;-66
2022/07/04 11:10:25;;;;;;;2.65;1.88;;;25.10;63.00;;;;;;5115264;28;20400;-68
2022/07/04 11:12:54;;;;;;;1.98;1.80;;;25.10;62.90;;;;;;5032087;28;20472;-65
2022/07/04 11:15:32;;;;;;;2.50;2.00;;;25.10;62.90;;;;;;5100255;28;20388;-64
2022/07/04 11:18:00;;;;;;;3.17;1.83;;;25.00;62.80;;;;;;5114676;28;20419;-65
2022/07/04 11:20:28;;;;;;;2.80;2.00;;;25.00;62.70;;;;;;5115039;28;20383;-64
2022/07/04 11:23:10;;;;;;;2.75;1.80;;;25.00;62.70;;;;;;5114972;28;20389;-64
2022/07/04 11:25:37;;;;;;;3.13;1.57;;;25.00;62.70;;;;;;5114251;28;20475;-65
2022/07/04 11:28:26;;;;;;;3.73;1.63;;;25.00;62.70;;;;;;5113449;28;20384;-66
2022/07/04 11:30:57;;;;;;;5.38;2.60;;;25.00;62.90;;;;;;5113497;28;20904;-64
2022/07/04 11:33:25;;;;;;;3.80;2.80;;;25.10;63.60;;;;;;5113670;27;20445;-65
2022/07/04 11:36:32;;;;;;;4.90;2.20;;;25.10;63.90;;;;;;5114103;28;20391;-65
2022/07/04 11:38:59;;;;;;;5.07;2.00;;;25.10;63.50;;;;;;5110324;28;20404;-65
2022/07/04 11:47:09;;;;;;;4.45;1.70;;;25.10;63.30;;;;;;5114677;28;20403;-69
2022/07/04 11:49:35;;;;;;;3.47;1.85;;;25.10;63.40;;;;;;5113672;28;20376;-64
2022/07/04 11:52:01;;;;;;;4.50;1.92;;;25.10;63.20;;;;;;5113518;28;20384;-69
2022/07/04 11:54:27;;;;;;;2.30;1.60;;;25.10;63.20;;;;;;5113843;28;20504;-64
2022/07/04 11:57:07;;;;;;;3.13;2.00;;;25.10;63.20;;;;;;5114169;28;20761;-64
2022/07/04 11:59:32;;;;;;;2.00;1.80;;;25.10;63.10;;;;;;5113419;28;20380;-64
2022/07/04 12:02:13;;;;;;;2.85;2.00;;;25.10;63.10;;;;;;5113880;28;20396;-65
2022/07/04 12:04:40;;;;;;;3.72;2.00;;;25.10;63.70;;;;;;5113648;28;20396;-65
2022/07/04 12:07:19;;;;;;;2.35;2.08;;;25.10;63.20;;;;;;5114035;28;20395;-68
2022/07/04 12:09:47;;;;;;;3.20;1.73;;;25.10;63.00;;;;;;5092878;28;20908;-65
2022/07/04 12:12:17;;;;;;;2.88;1.88;;;25.10;63.10;;;;;;5111987;28;20837;-66
2022/07/04 12:15:06;;;;;;;3.67;1.95;;;25.00;63.10;;;;;;5113386;28;20372;-64
2022/07/04 12:17:34;;;;;;;2.65;2.00;;;25.00;63.00;;;;;;5110730;28;20412;-70
2022/07/04 12:20:03;;;;;;;2.23;1.90;;;25.00;63.00;;;;;;5113474;28;20472;-65
2022/07/04 12:22:51;;;;;;;2.58;1.67;;;25.00;63.00;;;;;;5113617;28;20953;-65
2022/07/04 12:25:34;;;;;;;3.10;1.88;;;25.00;63.00;;;;;;5113330;28;20389;-68
2022/07/04 12:28:05;;;;;;;2.72;1.90;;;25.00;63.00;;;;;;5113559;28;20450;-67
2022/07/04 12:30:32;;;;;;;2.47;1.88;;;25.00;63.50;;;;;;5113135;28;20388;-70
2022/07/04 12:33:03;;;;;;;2.17;1.80;;;25.00;62.90;;;;;;5113304;28;20454;-64
2022/07/04 12:35:38;;;;;;;2.47;1.80;;;25.00;62.90;;;;;;5111237;28;20391;-65
2022/07/04 12:38:28;;;;;;;2.35;1.80;;;25.00;62.90;;;;;;5113186;28;20437;-65
2022/07/04 12:41:00;;;;;;;2.03;1.80;;;25.00;62.90;;;;;;5113011;28;20429;-64
2022/07/04 12:43:41;;;;;;;2.47;1.92;;;25.00;62.90;;;;;;5112508;28;20377;-68
2022/07/04 12:46:32;;;;;;;2.60;1.70;;;25.00;62.90;;;;;;5121657;27;20380;-65
2022/07/04 12:48:59;;;;;;;2.50;1.60;;;25.00;62.90;;;;;;5113166;28;20430;-65
2022/07/04 12:51:29;;;;;;;2.80;1.88;;;25.00;62.90;;;;;;5112268;28;20388;-67
2022/07/04 12:53:57;;;;;;;2.00;1.80;;;25.00;62.90;;;;;;5112773;28;20384;-64
2022/07/04 12:56:34;;;;;;;2.03;1.83;;;25.00;62.80;;;;;;5112300;28;20407;-69
2022/07/04 12:59:02;;;;;;;1.98;1.70;;;25.00;62.80;;;;;;5110595;28;20399;-64
2022/07/04 13:01:28;;;;;;;2.10;1.83;;;25.00;62.80;;;;;;5109428;28;20784;-70
2022/07/04 13:03:53;;;;;;;2.03;1.83;;;25.00;62.80;;;;;;5112846;28;20380;-65
2022/07/04 13:06:19;;;;;;;2.35;1.98;;;25.00;62.80;;;;;;5112351;28;20441;-69